Time;durP1;ratioP1;P1;durP2;ratioP2;P2;SDS_P1;SDS_P2;PMS_P1;PMS_P2;Temp;Humidity;BMP_temperature;BMP_pressure;BME280_temperature;BME280_humidity;BME280_pressure;Samples;Min_cycle;Max_cycle;Signal;HPM_P1;HPM_P2
2022/06/30 00:00:58;;;;;;;;;;;;;;;;;;4950950;28;19929;-63
2022/06/30 00:03:23;;;;;;;;;;;;;;;;;;4931780;28;20463;-63
2022/06/30 00:05:49;;;;;;;;;;;;;;;;;;4948606;28;20395;-63
2022/06/30 00:08:14;;;;;;;;;;;;;;;;;;4950238;28;19918;-63
2022/06/30 00:10:39;;;;;;;;;;;;;;;;;;4945613;28;19918;-62
2022/06/30 00:13:04;;;;;;;;;;;;;;;;;;4951400;28;19918;-64
2022/06/30 00:15:30;;;;;;;;;;;;;;;;;;4950730;28;19930;-63
2022/06/30 00:17:55;;;;;;;;;;;;;;;;;;4946499;28;19926;-63
2022/06/30 00:20:20;;;;;;;;;;;;;;;;;;4955909;28;19954;-63
2022/06/30 00:22:45;;;;;;;;;;;;;;;;;;4966723;28;19929;-64
2022/06/30 00:25:13;;;;;;;;;;;;;;;;;;4953609;28;19930;-62
2022/06/30 00:27:38;;;;;;;;;;;;;;;;;;4962627;28;19922;-63
2022/06/30 00:30:03;;;;;;;;;;;;;;;;;;4959367;28;20365;-63
2022/06/30 00:32:29;;;;;;;;;;;;;;;;;;4970082;28;20442;-64
2022/06/30 00:34:55;;;;;;;;;;;;;;;;;;4947329;28;19918;-63
2022/06/30 00:37:20;;;;;;;;;;;;;;;;;;4954640;28;20441;-64
2022/06/30 00:39:46;;;;;;;;;;;;;;;;;;4950499;28;20356;-64
2022/06/30 00:42:11;;;;;;;;;;;;;;;;;;4952421;28;20660;-63
2022/06/30 00:44:36;;;;;;;;;;;;;;;;;;4953803;28;20396;-63
2022/06/30 00:47:05;;;;;;;;;;;;;;;;;;4962966;28;20548;-61
2022/06/30 00:49:30;;;;;;;;;;;;;;;;;;4953267;28;20020;-63
2022/06/30 00:51:56;;;;;;;;;;;;;;;;;;4954057;28;19922;-63
2022/06/30 00:54:22;;;;;;;;;;;;;;;;;;4949415;28;20510;-64
2022/06/30 00:56:47;;;;;;;;;;;;;;;;;;4955823;28;20112;-64
2022/06/30 00:59:12;;;;;;;;;;;;;;;;;;4945953;28;19965;-65
2022/06/30 01:01:38;;;;;;;;;;;;;;;;;;4962270;28;19977;-65
2022/06/30 01:04:04;;;;;;;;;;;;;;;;;;4964900;28;20306;-63
2022/06/30 01:06:29;;;;;;;;;;;;;;;;;;4947057;28;19926;-63
2022/06/30 01:08:55;;;;;;;;;;;;;;;;;;4957736;28;19924;-63
2022/06/30 01:14:04;;;;;;;;;;;;;;;;;;4948109;28;20435;-63
2022/06/30 01:16:29;;;;;;;;;;;;;;;;;;4951539;28;19929;-64
2022/06/30 01:18:54;;;;;;;;;;;;;;;;;;4958038;28;19918;-64
2022/06/30 01:21:20;;;;;;;;;;;;;;;;;;4953341;28;19942;-63
2022/06/30 01:23:45;;;;;;;;;;;;;;;;;;4958025;28;19981;-63
2022/06/30 01:26:10;;;;;;;;;;;;;;;;;;4931070;28;20260;-64
2022/06/30 01:28:35;;;;;;;;;;;;;;;;;;4952239;28;20426;-64
2022/06/30 01:31:00;;;;;;;;;;;;;;;;;;4960659;28;20335;-64
2022/06/30 01:33:26;;;;;;;;;;;;;;;;;;4951142;28;19919;-64
2022/06/30 01:35:51;;;;;;;;;;;;;;;;;;4934432;28;19985;-63
2022/06/30 01:38:17;;;;;;;;;;;;;;;;;;4949698;28;20387;-63
2022/06/30 01:40:42;;;;;;;;;;;;;;;;;;4957047;28;19922;-62
2022/06/30 01:43:11;;;;;;;;;;;;;;;;;;4949370;28;20430;-63
2022/06/30 01:45:36;;;;;;;;;;;;;;;;;;4953713;28;19922;-64
2022/06/30 01:48:01;;;;;;;;;;;;;;;;;;4939276;28;19918;-62
2022/06/30 01:50:27;;;;;;;;;;;;;;;;;;4934001;28;19933;-62
2022/06/30 01:52:52;;;;;;;;;;;;;;;;;;4956071;28;20449;-63
2022/06/30 01:55:17;;;;;;;;;;;;;;;;;;4945929;28;19918;-63
2022/06/30 01:57:42;;;;;;;;;;;;;;;;;;4940868;28;19943;-63
2022/06/30 02:00:08;;;;;;;;;;;;;;;;;;4930602;28;20296;-63
2022/06/30 02:02:33;;;;;;;;;;;;;;;;;;4948105;28;19930;-63
2022/06/30 02:04:58;;;;;;;;;;;;;;;;;;4957595;28;19922;-63
2022/06/30 02:07:24;;;;;;;;;;;;;;;;;;4949321;28;20016;-63
2022/06/30 02:09:51;;;;;;;;;;;;;;;;;;4950304;28;20033;-63
2022/06/30 02:15:00;;;;;;;;;;;;;;;;;;4944959;28;19928;-63
2022/06/30 02:17:25;;;;;;;;;;;;;;;;;;4952452;28;19918;-63
2022/06/30 02:19:50;;;;;;;;;;;;;;;;;;4951290;28;20473;-62
2022/06/30 02:22:15;;;;;;;;;;;;;;;;;;4952536;28;20423;-63
2022/06/30 02:24:40;;;;;;;;;;;;;;;;;;4960448;28;20419;-63
2022/06/30 02:27:06;;;;;;;;;;;;;;;;;;4955835;28;20045;-62
2022/06/30 02:29:31;;;;;;;;;;;;;;;;;;4951802;28;20009;-62
2022/06/30 02:31:56;;;;;;;;;;;;;;;;;;4962461;28;19925;-62
2022/06/30 02:34:21;;;;;;;;;;;;;;;;;;4953491;28;20374;-63
2022/06/30 02:36:47;;;;;;;;;;;;;;;;;;4951971;28;19918;-63
2022/06/30 02:39:12;;;;;;;;;;;;;;;;;;4947274;28;20073;-63
2022/06/30 02:41:37;;;;;;;;;;;;;;;;;;4953568;28;19918;-63
2022/06/30 02:44:03;;;;;;;;;;;;;;;;;;4945933;28;20378;-63
2022/06/30 02:46:28;;;;;;;;;;;;;;;;;;4950005;28;19965;-63
2022/06/30 02:48:53;;;;;;;;;;;;;;;;;;4950071;28;19981;-63
2022/06/30 02:51:18;;;;;;;;;;;;;;;;;;4947538;28;19922;-63
2022/06/30 02:53:44;;;;;;;;;;;;;;;;;;4952687;28;19925;-63
2022/06/30 02:56:11;;;;;;;;;;;;;;;;;;4947059;28;19954;-62
2022/06/30 02:58:37;;;;;;;;;;;;;;;;;;4954098;28;19925;-64
2022/06/30 03:01:02;;;;;;;;;;;;;;;;;;4961387;28;19918;-62
2022/06/30 03:03:27;;;;;;;;;;;;;;;;;;4941192;28;20001;-62
2022/06/30 03:05:52;;;;;;;;;;;;;;;;;;4966634;28;20016;-62
2022/06/30 03:08:17;;;;;;;;;;;;;;;;;;4946016;28;19918;-63
2022/06/30 03:10:43;;;;;;;;;;;;;;;;;;4956341;28;19918;-63
2022/06/30 03:13:08;;;;;;;;;;;;;;;;;;4951681;28;19922;-61
2022/06/30 03:15:33;;;;;;;;;;;;;;;;;;4947836;28;20320;-64
2022/06/30 03:17:59;;;;;;;;;;;;;;;;;;4952285;28;20021;-63
2022/06/30 03:20:24;;;;;;;;;;;;;;;;;;4948919;28;20004;-63
2022/06/30 03:22:49;;;;;;;;;;;;;;;;;;4948446;28;20353;-62
2022/06/30 03:25:15;;;;;;;;;;;;;;;;;;4951100;28;19965;-63
2022/06/30 03:27:40;;;;;;;;;;;;;;;;;;4943787;28;19924;-62
2022/06/30 03:30:05;;;;;;;;;;;;;;;;;;4962091;28;20125;-63
2022/06/30 03:32:30;;;;;;;;;;;;;;;;;;4944259;28;19956;-63
2022/06/30 03:34:55;;;;;;;;;;;;;;;;;;4949072;28;20299;-63
2022/06/30 03:37:21;;;;;;;;;;;;;;;;;;4936513;28;20599;-62
2022/06/30 03:39:46;;;;;;;;;;;;;;;;;;4949568;28;19972;-62
2022/06/30 03:42:11;;;;;;;;;;;;;;;;;;4951803;28;19966;-62
2022/06/30 03:44:36;;;;;;;;;;;;;;;;;;4960464;28;19926;-62
2022/06/30 03:47:02;;;;;;;;;;;;;;;;;;4948999;28;19918;-62
2022/06/30 03:49:27;;;;;;;;;;;;;;;;;;4942025;28;19948;-63
2022/06/30 03:51:52;;;;;;;;;;;;;;;;;;4943771;28;19917;-62
2022/06/30 03:54:19;;;;;;;;;;;;;;;;;;4953038;28;19936;-62
2022/06/30 03:56:44;;;;;;;;;;;;;;;;;;4962110;28;19922;-63
2022/06/30 03:59:09;;;;;;;;;;;;;;;;;;4950710;28;20399;-62
2022/06/30 04:01:34;;;;;;;;;;;;;;;;;;4960534;28;19918;-62
2022/06/30 04:04:00;;;;;;;;;;;;;;;;;;4948646;28;19965;-63
2022/06/30 04:06:25;;;;;;;;;;;;;;;;;;4958024;28;19918;-62
2022/06/30 04:08:50;;;;;;;;;;;;;;;;;;4950093;28;19925;-62
2022/06/30 04:11:15;;;;;;;;;;;;;;;;;;4963720;28;19922;-63
2022/06/30 04:13:40;;;;;;;;;;;;;;;;;;4968900;28;19933;-62
2022/06/30 04:16:06;;;;;;;;;;;;;;;;;;4948251;28;19922;-64
2022/06/30 04:18:31;;;;;;;;;;;;;;;;;;4957755;28;19923;-62
2022/06/30 04:20:56;;;;;;;;;;;;;;;;;;4951564;28;20580;-63
2022/06/30 04:23:21;;;;;;;;;;;;;;;;;;4953130;28;20940;-62
2022/06/30 04:25:47;;;;;;;;;;;;;;;;;;4953323;28;20058;-62
2022/06/30 04:28:12;;;;;;;;;;;;;;;;;;4952005;28;20318;-63
2022/06/30 04:33:21;;;;;;;;;;;;;;;;;;4955600;28;20434;-63
2022/06/30 04:35:47;;;;;;;;;;;;;;;;;;4951435;28;19919;-62
2022/06/30 04:38:12;;;;;;;;;;;;;;;;;;4956317;28;20454;-63
2022/06/30 04:43:21;;;;;;;;;;;;;;;;;;4958676;28;19922;-62
2022/06/30 04:45:46;;;;;;;;;;;;;;;;;;4955230;28;20296;-62
2022/06/30 04:48:11;;;;;;;;;;;;;;;;;;4951375;28;20407;-64
2022/06/30 04:50:37;;;;;;;;;;;;;;;;;;4968642;28;19918;-63
2022/06/30 04:53:02;;;;;;;;;;;;;;;;;;4953688;28;19918;-63
2022/06/30 04:55:27;;;;;;;;;;;;;;;;;;4956689;28;19941;-64
2022/06/30 04:57:52;;;;;;;;;;;;;;;;;;4947902;28;19940;-63
2022/06/30 05:00:18;;;;;;;;;;;;;;;;;;4949267;28;19918;-63
2022/06/30 05:02:43;;;;;;;;;;;;;;;;;;4957950;28;19924;-63
2022/06/30 05:05:09;;;;;;;;;;;;;;;;;;4946584;28;20001;-65
2022/06/30 05:07:34;;;;;;;;;;;;;;;;;;4953780;28;20387;-65
2022/06/30 05:10:00;;;;;;;;;;;;;;;;;;4947558;28;20033;-62
2022/06/30 05:12:25;;;;;;;;;;;;;;;;;;4946465;28;20057;-64
2022/06/30 05:14:50;;;;;;;;;;;;;;;;;;4955254;28;20495;-63
2022/06/30 05:17:15;;;;;;;;;;;;;;;;;;4935148;28;19918;-63
2022/06/30 05:19:41;;;;;;;;;;;;;;;;;;4954502;28;19925;-64
2022/06/30 05:22:06;;;;;;;;;;;;;;;;;;4953017;28;20454;-64
2022/06/30 05:27:15;;;;;;;;;;;;;;;;;;4954662;28;20399;-63
2022/06/30 05:29:40;;;;;;;;;;;;;;;;;;4954953;28;20327;-63
2022/06/30 05:32:05;;;;;;;;;;;;;;;;;;4965559;28;19918;-62
2022/06/30 05:34:31;;;;;;;;;;;;;;;;;;4957805;28;19922;-64
2022/06/30 05:36:56;;;;;;;;;;;;;;;;;;4942056;28;19918;-62
2022/06/30 05:39:21;;;;;;;;;;;;;;;;;;4951159;28;19925;-62
2022/06/30 05:41:46;;;;;;;;;;;;;;;;;;4951677;28;20658;-64
2022/06/30 05:44:12;;;;;;;;;;;;;;;;;;4950443;28;19923;-63
2022/06/30 05:46:37;;;;;;;;;;;;;;;;;;4954007;28;20005;-63
2022/06/30 05:49:02;;;;;;;;;;;;;;;;;;4951871;28;20395;-64
2022/06/30 05:51:27;;;;;;;;;;;;;;;;;;4937770;28;19972;-63
2022/06/30 05:53:53;;;;;;;;;;;;;;;;;;4966831;28;19966;-63
2022/06/30 05:56:18;;;;;;;;;;;;;;;;;;4951770;28;20045;-66
2022/06/30 05:58:45;;;;;;;;;;;;;;;;;;4954871;28;20041;-63
2022/06/30 06:01:10;;;;;;;;;;;;;;;;;;4949675;28;19977;-62
2022/06/30 06:03:35;;;;;;;;;;;;;;;;;;4965103;28;19923;-62
2022/06/30 06:06:00;;;;;;;;;;;;;;;;;;4951137;28;19937;-63
2022/06/30 06:08:25;;;;;;;;;;;;;;;;;;4951410;28;19918;-63
2022/06/30 06:10:51;;;;;;;;;;;;;;;;;;4964215;28;19925;-62
2022/06/30 06:13:16;;;;;;;;;;;;;;;;;;4953222;28;19925;-63
2022/06/30 06:15:41;;;;;;;;;;;;;;;;;;4952352;28;19918;-64
2022/06/30 06:18:06;;;;;;;;;;;;;;;;;;4967794;28;19918;-63
2022/06/30 06:20:32;;;;;;;;;;;;;;;;;;4952238;28;20199;-64
2022/06/30 06:22:57;;;;;;;;;;;;;;;;;;4949874;28;19922;-63
2022/06/30 06:25:22;;;;;;;;;;;;;;;;;;4951094;28;20481;-63
2022/06/30 06:29:05;;;;;;;;;;;;;;;;;;4966366;28;20406;-62
2022/06/30 06:30:33;;;;;;;;;;;;;;;;;;4952457;28;19930;-63
2022/06/30 06:32:58;;;;;;;;;;;;;;;;;;4965689;28;20322;-64
2022/06/30 06:35:24;;;;;;;;;;;;;;;;;;4949129;28;20180;-64
2022/06/30 06:37:49;;;;;;;;;;;;;;;;;;4953409;28;20247;-64
2022/06/30 06:40:14;;;;;;;;;;;;;;;;;;4950221;28;19914;-63
2022/06/30 06:42:39;;;;;;;;;;;;;;;;;;4966382;28;19942;-64
2022/06/30 06:45:05;;;;;;;;;;;;;;;;;;4965139;28;19922;-63
2022/06/30 06:47:31;;;;;;;;;;;;;;;;;;4950409;28;19918;-64
2022/06/30 06:49:56;;;;;;;;;;;;;;;;;;4951581;28;20439;-64
2022/06/30 06:52:21;;;;;;;;;;;;;;;;;;4934661;28;19932;-64
2022/06/30 06:54:47;;;;;;;;;;;;;;;;;;4965762;28;19969;-63
2022/06/30 06:57:12;;;;;;;;;;;;;;;;;;4949485;28;19924;-64
2022/06/30 06:59:38;;;;;;;;;;;;;;;;;;4941509;28;19941;-64
2022/06/30 07:02:03;;;;;;;;;;;;;;;;;;4966422;28;19918;-65
2022/06/30 07:04:29;;;;;;;;;;;;;;;;;;4950893;28;19944;-64
2022/06/30 07:06:54;;;;;;;;;;;;;;;;;;4952468;28;19930;-65
2022/06/30 07:09:19;;;;;;;;;;;;;;;;;;4943661;28;19926;-65
2022/06/30 07:11:44;;;;;;;;;;;;;;;;;;4966096;28;19914;-64
2022/06/30 07:14:10;;;;;;;;;;;;;;;;;;4934608;28;19970;-64
2022/06/30 07:16:35;;;;;;;;;;;;;;;;;;4965802;28;19970;-64
2022/06/30 07:19:00;;;;;;;;;;;;;;;;;;4949306;28;19929;-64
2022/06/30 07:21:25;;;;;;;;;;;;;;;;;;4936207;28;20719;-63
2022/06/30 07:23:51;;;;;;;;;;;;;;;;;;4937888;28;20005;-64
2022/06/30 07:26:16;;;;;;;;;;;;;;;;;;4949932;28;19969;-64
2022/06/30 07:28:42;;;;;;;;;;;;;;;;;;4950587;28;20032;-64
2022/06/30 07:31:08;;;;;;;;;;;;;;;;;;4964038;28;20287;-64
2022/06/30 07:33:34;;;;;;;;;;;;;;;;;;4949080;28;20021;-64
2022/06/30 07:35:59;;;;;;;;;;;;;;;;;;4950391;28;20018;-64
2022/06/30 07:38:24;;;;;;;;;;;;;;;;;;4964735;28;20020;-64
2022/06/30 07:40:49;;;;;;;;;;;;;;;;;;4951793;28;19914;-64
2022/06/30 07:43:15;;;;;;;;;;;;;;;;;;4952210;28;19985;-64
2022/06/30 07:45:40;;;;;;;;;;;;;;;;;;4941523;28;20335;-64
2022/06/30 07:48:05;;;;;;;;;;;;;;;;;;4966122;28;20419;-64
2022/06/30 07:50:31;;;;;;;;;;;;;;;;;;4942806;28;19972;-64
2022/06/30 07:52:56;;;;;;;;;;;;;;;;;;4964169;28;19918;-64
2022/06/30 07:55:21;;;;;;;;;;;;;;;;;;4965192;28;19918;-64
2022/06/30 07:57:48;;;;;;;;;;;;;;;;;;4952705;28;19966;-64
2022/06/30 08:00:14;;;;;;;;;;;;;;;;;;4962810;28;19918;-65
2022/06/30 08:02:39;;;;;;;;;;;;;;;;;;4949292;28;20351;-64
2022/06/30 08:05:04;;;;;;;;;;;;;;;;;;4949710;28;20420;-64
2022/06/30 08:07:29;;;;;;;;;;;;;;;;;;4951343;28;19922;-65
2022/06/30 08:09:55;;;;;;;;;;;;;;;;;;4942467;28;19926;-65
2022/06/30 08:12:21;;;;;;;;;;;;;;;;;;4952574;28;20860;-65
2022/06/30 08:14:46;;;;;;;;;;;;;;;;;;4951252;28;19926;-64
2022/06/30 08:17:11;;;;;;;;;;;;;;;;;;4931835;28;19918;-65
2022/06/30 08:19:37;;;;;;;;;;;;;;;;;;4951286;28;19918;-64
2022/06/30 08:22:02;;;;;;;;;;;;;;;;;;4949487;28;19972;-64
2022/06/30 08:24:27;;;;;;;;;;;;;;;;;;4950112;28;19978;-65
2022/06/30 08:26:52;;;;;;;;;;;;;;;;;;4953422;28;19914;-65
2022/06/30 08:29:18;;;;;;;;;;;;;;;;;;4965616;28;20349;-65
2022/06/30 08:31:43;;;;;;;;;;;;;;;;;;4936662;28;19929;-63
2022/06/30 08:34:08;;;;;;;;;;;;;;;;;;4944259;28;19918;-64
2022/06/30 08:36:33;;;;;;;;;;;;;;;;;;4956530;28;19920;-63
2022/06/30 08:38:58;;;;;;;;;;;;;;;;;;4968531;28;19918;-64
2022/06/30 08:44:08;;;;;;;;;;;;;;;;;;4954427;28;20754;-64
2022/06/30 08:46:33;;;;;;;;;;;;;;;;;;4952688;28;19918;-63
2022/06/30 08:48:58;;;;;;;;;;;;;;;;;;4953095;28;19930;-65
2022/06/30 08:51:23;;;;;;;;;;;;;;;;;;4954380;28;20275;-64
2022/06/30 08:53:49;;;;;;;;;;;;;;;;;;4952588;28;19960;-63
2022/06/30 08:56:14;;;;;;;;;;;;;;;;;;4953115;28;19918;-63
2022/06/30 08:58:39;;;;;;;;;;;;;;;;;;4956536;28;19918;-64
2022/06/30 09:01:05;;;;;;;;;;;;;;;;;;4952318;28;20022;-63
2022/06/30 09:03:30;;;;;;;;;;;;;;;;;;4968376;28;19937;-63
2022/06/30 09:05:55;;;;;;;;;;;;;;;;;;4967902;28;19922;-65
2022/06/30 09:08:20;;;;;;;;;;;;;;;;;;4951979;28;20001;-66
2022/06/30 09:10:46;;;;;;;;;;;;;;;;;;4953339;28;19914;-66
2022/06/30 09:13:11;;;;;;;;;;;;;;;;;;4953941;28;20017;-65
2022/06/30 09:15:36;;;;;;;;;;;;;;;;;;4952020;28;20123;-65
2022/06/30 09:18:01;;;;;;;;;;;;;;;;;;4953886;28;19918;-65
2022/06/30 09:20:27;;;;;;;;;;;;;;;;;;4954017;28;19910;-65
2022/06/30 09:22:52;;;;;;;;;;;;;;;;;;4952317;28;20012;-65
2022/06/30 09:25:20;;;;;;;;;;;;;;;;;;4952966;28;19920;-65
2022/06/30 09:27:47;;;;;;;;;;;;;;;;;;4968181;28;20374;-65
2022/06/30 09:30:12;;;;;;;;;;;;;;;;;;4951040;28;19922;-65
2022/06/30 09:32:39;;;;;;;;;;;;;;;;;;4953990;28;20297;-65
2022/06/30 09:35:04;;;;;;;;;;;;;;;;;;4950078;28;19925;-64
2022/06/30 09:37:29;;;;;;;;;;;;;;;;;;4966258;28;20212;-65
2022/06/30 09:39:55;;;;;;;;;;;;;;;;;;4951944;28;20040;-65
2022/06/30 09:42:21;;;;;;;;;;;;;;;;;;4965336;28;20453;-65
2022/06/30 09:44:46;;;;;;;;;;;;;;;;;;4939199;28;20024;-65
2022/06/30 09:47:11;;;;;;;;;;;;;;;;;;4951912;28;19922;-65
2022/06/30 09:49:36;;;;;;;;;;;;;;;;;;4952044;28;19966;-64
2022/06/30 09:52:02;;;;;;;;;;;;;;;;;;4952614;28;19965;-65
2022/06/30 09:54:27;;;;;;;;;;;;;;;;;;4952141;28;19919;-66
2022/06/30 09:56:52;;;;;;;;;;;;;;;;;;4966375;28;19918;-65
2022/06/30 09:59:17;;;;;;;;;;;;;;;;;;4952197;28;20049;-64
2022/06/30 10:01:43;;;;;;;;;;;;;;;;;;4946443;28;20290;-65
2022/06/30 10:04:10;;;;;;;;;;;;;;;;;;4937685;28;19940;-64
2022/06/30 10:06:35;;;;;;;;;;;;;;;;;;4951957;28;19966;-65
2022/06/30 10:09:01;;;;;;;;;;;;;;;;;;4952507;28;19977;-64
2022/06/30 10:11:26;;;;;;;;;;;;;;;;;;4952094;28;20036;-64
2022/06/30 10:13:52;;;;;;;;;;;;;;;;;;4938718;28;20022;-63
2022/06/30 10:16:17;;;;;;;;;;;;;;;;;;4952624;28;20764;-65
2022/06/30 10:18:42;;;;;;;;;;;;;;;;;;4950152;28;19918;-65
2022/06/30 10:21:10;;;;;;;;;;;;;;;;;;4965913;28;20008;-67
2022/06/30 10:23:36;;;;;;;;;;;;;;;;;;4967514;28;20439;-63
2022/06/30 10:26:02;;;;;;;;;;;;;;;;;;4951621;28;19926;-63
2022/06/30 10:28:28;;;;;;;;;;;;;;;;;;4966907;28;19918;-63
2022/06/30 10:30:53;;;;;;;;;;;;;;;;;;4965418;28;20265;-63
2022/06/30 10:33:18;;;;;;;;;;;;;;;;;;4966487;28;19961;-64
2022/06/30 10:35:43;;;;;;;;;;;;;;;;;;4953768;28;19907;-64
2022/06/30 10:38:08;;;;;;;;;;;;;;;;;;4952090;28;19919;-64
2022/06/30 10:40:34;;;;;;;;;;;;;;;;;;4967545;28;19921;-65
2022/06/30 10:43:00;;;;;;;;;;;;;;;;;;4965572;28;19922;-65
2022/06/30 10:45:25;;;;;;;;;;;;;;;;;;4966826;28;20017;-66
2022/06/30 10:47:50;;;;;;;;;;;;;;;;;;4951177;28;20029;-64
2022/06/30 10:50:15;;;;;;;;;;;;;;;;;;4953051;28;19915;-65
2022/06/30 10:52:41;;;;;;;;;;;;;;;;;;4943445;28;19937;-65
2022/06/30 10:55:06;;;;;;;;;;;;;;;;;;4951453;28;19918;-64
2022/06/30 10:57:31;;;;;;;;;;;;;;;;;;4951723;28;19918;-65
2022/06/30 10:59:56;;;;;;;;;;;;;;;;;;4952000;28;19919;-65
2022/06/30 11:02:22;;;;;;;;;;;;;;;;;;4950531;28;19919;-65
2022/06/30 11:04:50;;;;;;;;;;;;;;;;;;4948893;28;20077;-66
2022/06/30 11:07:15;;;;;;;;;;;;;;;;;;4951247;28;20000;-65
2022/06/30 11:09:40;;;;;;;;;;;;;;;;;;4952808;28;19944;-65
2022/06/30 11:12:06;;;;;;;;;;;;;;;;;;4951482;28;19918;-64
2022/06/30 11:14:31;;;;;;;;;;;;;;;;;;4951066;28;19925;-66
2022/06/30 11:16:56;;;;;;;;;;;;;;;;;;4965441;28;19934;-64
2022/06/30 11:19:21;;;;;;;;;;;;;;;;;;4963183;28;19914;-66
2022/06/30 11:21:47;;;;;;;;;;;;;;;;;;4950732;28;19982;-65
2022/06/30 11:24:12;;;;;;;;;;;;;;;;;;4965100;28;19973;-65
2022/06/30 11:29:23;;;;;;;;;;;;;;;;;;4963899;28;19929;-67
2022/06/30 11:31:49;;;;;;;;;;;;;;;;;;4949404;28;20001;-65
2022/06/30 11:34:14;;;;;;;;;;;;;;;;;;4952597;28;20332;-66
2022/06/30 11:36:40;;;;;;;;;;;;;;;;;;4949193;28;19926;-65
2022/06/30 11:39:05;;;;;;;;;;;;;;;;;;4966338;28;20012;-65
2022/06/30 11:44:14;;;;;;;;;;;;;;;;;;4953846;28;19922;-66
2022/06/30 11:46:39;;;;;;;;;;;;;;;;;;4952707;28;19922;-65
2022/06/30 11:49:04;;;;;;;;;;;;;;;;;;4951894;28;19963;-65
2022/06/30 11:51:30;;;;;;;;;;;;;;;;;;4966112;28;19918;-66
2022/06/30 11:53:55;;;;;;;;;;;;;;;;;;4951627;28;20554;-66
2022/06/30 11:56:20;;;;;;;;;;;;;;;;;;4954043;28;20614;-64
2022/06/30 11:58:45;;;;;;;;;;;;;;;;;;4954776;28;20530;-65
2022/06/30 12:01:10;;;;;;;;;;;;;;;;;;4953638;28;20661;-66
2022/06/30 12:03:36;;;;;;;;;;;;;;;;;;4950904;28;19918;-66
2022/06/30 12:06:01;;;;;;;;;;;;;;;;;;4950479;28;20402;-66
2022/06/30 12:08:26;;;;;;;;;;;;;;;;;;4969957;28;20352;-66
2022/06/30 12:10:56;;;;;;;;;;;;;;;;;;4955774;28;19918;-68
2022/06/30 12:13:22;;;;;;;;;;;;;;;;;;4970786;28;20413;-66
2022/06/30 12:15:47;;;;;;;;;;;;;;;;;;4958075;28;19914;-66
2022/06/30 12:18:12;;;;;;;;;;;;;;;;;;4970636;28;19923;-66
2022/06/30 12:20:38;;;;;;;;;;;;;;;;;;4954342;28;19918;-66
2022/06/30 12:23:03;;;;;;;;;;;;;;;;;;4953219;28;20028;-66
2022/06/30 12:25:28;;;;;;;;;;;;;;;;;;4966947;28;19918;-65
2022/06/30 12:27:54;;;;;;;;;;;;;;;;;;4953148;28;20283;-66
2022/06/30 12:30:20;;;;;;;;;;;;;;;;;;4955671;28;19939;-65
2022/06/30 12:32:45;;;;;;;;;;;;;;;;;;4954322;28;19918;-66
2022/06/30 12:35:10;;;;;;;;;;;;;;;;;;4954184;28;19914;-66
2022/06/30 12:37:36;;;;;;;;;;;;;;;;;;4956238;28;19922;-66
2022/06/30 12:40:01;;;;;;;;;;;;;;;;;;4955862;28;19922;-66
2022/06/30 12:42:26;;;;;;;;;;;;;;;;;;4954676;28;19914;-66
2022/06/30 12:44:51;;;;;;;;;;;;;;;;;;4954866;28;19981;-66
2022/06/30 12:47:17;;;;;;;;;;;;;;;;;;4954500;28;20002;-66
2022/06/30 12:49:43;;;;;;;;;;;;;;;;;;4953841;28;19925;-65
2022/06/30 12:52:08;;;;;;;;;;;;;;;;;;4954373;28;19918;-66
2022/06/30 12:54:33;;;;;;;;;;;;;;;;;;4968796;28;19919;-65
2022/06/30 12:56:58;;;;;;;;;;;;;;;;;;4968694;28;19915;-66
2022/06/30 12:59:24;;;;;;;;;;;;;;;;;;4955219;28;19922;-65
2022/06/30 13:01:49;;;;;;;;;;;;;;;;;;4968694;28;19925;-66
2022/06/30 13:04:14;;;;;;;;;;;;;;;;;;4954818;28;19937;-66
2022/06/30 13:06:39;;;;;;;;;;;;;;;;;;4956304;28;19923;-66
2022/06/30 13:09:06;;;;;;;;;;;;;;;;;;4954996;28;19918;-66
2022/06/30 13:11:31;;;;;;;;;;;;;;;;;;4955154;28;19954;-66
2022/06/30 13:13:56;;;;;;;;;;;;;;;;;;4955463;28;19922;-66
2022/06/30 13:16:21;;;;;;;;;;;;;;;;;;4953475;28;19921;-66
2022/06/30 13:18:48;;;;;;;;;;;;;;;;;;4953740;28;19957;-66
2022/06/30 13:21:13;;;;;;;;;;;;;;;;;;4955056;28;19918;-66
2022/06/30 13:23:39;;;;;;;;;;;;;;;;;;4967175;28;19930;-66
2022/06/30 13:26:04;;;;;;;;;;;;;;;;;;4956063;28;19966;-66
2022/06/30 13:28:29;;;;;;;;;;;;;;;;;;4953066;28;19942;-66
2022/06/30 13:30:54;;;;;;;;;;;;;;;;;;4967566;28;19996;-66
2022/06/30 13:33:20;;;;;;;;;;;;;;;;;;4967024;28;20294;-68
2022/06/30 13:35:45;;;;;;;;;;;;;;;;;;4954081;28;20334;-67
2022/06/30 13:38:10;;;;;;;;;;;;;;;;;;4965970;28;20347;-66
2022/06/30 13:40:36;;;;;;;;;;;;;;;;;;4955137;28;19918;-66
2022/06/30 13:43:01;;;;;;;;;;;;;;;;;;4954062;28;19926;-66
2022/06/30 13:45:27;;;;;;;;;;;;;;;;;;4939894;28;19922;-66
2022/06/30 13:47:52;;;;;;;;;;;;;;;;;;4953996;28;20348;-66
2022/06/30 13:50:18;;;;;;;;;;;;;;;;;;4966346;28;19934;-66
2022/06/30 13:52:43;;;;;;;;;;;;;;;;;;4954737;28;19918;-66
2022/06/30 13:55:09;;;;;;;;;;;;;;;;;;4968860;28;20222;-66
2022/06/30 13:57:34;;;;;;;;;;;;;;;;;;4967391;28;19918;-65
2022/06/30 13:59:59;;;;;;;;;;;;;;;;;;4966942;28;19965;-65
2022/06/30 14:02:25;;;;;;;;;;;;;;;;;;4967361;28;20398;-65
2022/06/30 14:04:50;;;;;;;;;;;;;;;;;;4950953;28;20343;-66
2022/06/30 14:07:15;;;;;;;;;;;;;;;;;;4952607;28;19919;-66
2022/06/30 14:09:41;;;;;;;;;;;;;;;;;;4967661;28;20401;-66
2022/06/30 14:12:06;;;;;;;;;;;;;;;;;;4953074;28;19919;-66
2022/06/30 14:14:31;;;;;;;;;;;;;;;;;;4951751;28;19922;-65
2022/06/30 14:16:57;;;;;;;;;;;;;;;;;;4952660;28;19925;-66
2022/06/30 14:19:22;;;;;;;;;;;;;;;;;;4954039;28;20694;-65
2022/06/30 14:21:47;;;;;;;;;;;;;;;;;;4953128;28;20029;-65
2022/06/30 14:24:13;;;;;;;;;;;;;;;;;;4969117;28;20581;-66
2022/06/30 14:26:38;;;;;;;;;;;;;;;;;;4951460;28;19918;-66
2022/06/30 14:29:03;;;;;;;;;;;;;;;;;;4939330;28;20328;-66
2022/06/30 14:31:28;;;;;;;;;;;;;;;;;;4954079;28;20493;-66
2022/06/30 14:33:54;;;;;;;;;;;;;;;;;;4951869;28;19969;-65
2022/06/30 14:36:19;;;;;;;;;;;;;;;;;;4959134;28;20431;-65
2022/06/30 14:38:44;;;;;;;;;;;;;;;;;;4952124;28;19969;-66
2022/06/30 14:41:10;;;;;;;;;;;;;;;;;;4955381;28;20435;-65
2022/06/30 14:43:35;;;;;;;;;;;;;;;;;;4950395;28;19953;-65
2022/06/30 14:46:00;;;;;;;;;;;;;;;;;;4951946;28;19922;-65
2022/06/30 14:48:27;;;;;;;;;;;;;;;;;;4952024;28;19921;-64
2022/06/30 14:50:52;;;;;;;;;;;;;;;;;;4959194;28;20712;-65
2022/06/30 14:53:17;;;;;;;;;;;;;;;;;;4949008;28;20012;-65
2022/06/30 14:55:42;;;;;;;;;;;;;;;;;;4952133;28;20420;-65
2022/06/30 14:58:08;;;;;;;;;;;;;;;;;;4952536;28;19918;-65
2022/06/30 15:00:38;;;;;;;;;;;;;;;;;;4952186;28;19925;-64
2022/06/30 15:03:03;;;;;;;;;;;;;;;;;;4950190;28;19985;-65
2022/06/30 15:05:30;;;;;;;;;;;;;;;;;;4950429;28;19922;-65
2022/06/30 15:07:55;;;;;;;;;;;;;;;;;;4951702;28;20443;-64
2022/06/30 15:10:20;;;;;;;;;;;;;;;;;;4951516;28;19961;-65
2022/06/30 15:12:46;;;;;;;;;;;;;;;;;;4954591;28;20316;-65
2022/06/30 15:15:11;;;;;;;;;;;;;;;;;;4967739;28;20415;-66
2022/06/30 15:17:36;;;;;;;;;;;;;;;;;;4965761;28;20021;-65
2022/06/30 15:20:01;;;;;;;;;;;;;;;;;;4952533;28;19928;-65
2022/06/30 15:25:10;;;;;;;;;;;;;;;;;;4950386;28;20116;-66
2022/06/30 15:27:36;;;;;;;;;;;;;;;;;;4966161;28;20009;-66
2022/06/30 15:30:01;;;;;;;;;;;;;;;;;;4937281;28;19930;-66
2022/06/30 15:32:28;;;;;;;;;;;;;;;;;;4935079;28;20411;-65
2022/06/30 15:34:53;;;;;;;;;;;;;;;;;;4953347;28;19993;-64
2022/06/30 15:37:18;;;;;;;;;;;;;;;;;;4949643;28;20017;-65
2022/06/30 15:39:47;;;;;;;;;;;;;;;;;;4954108;28;19918;-65
2022/06/30 15:42:12;;;;;;;;;;;;;;;;;;4952162;28;20097;-65
2022/06/30 15:44:39;;;;;;;;;;;;;;;;;;4943117;28;19926;-65
2022/06/30 15:47:04;;;;;;;;;;;;;;;;;;4949234;28;19942;-65
2022/06/30 15:49:29;;;;;;;;;;;;;;;;;;4951521;28;19919;-64
2022/06/30 15:51:56;;;;;;;;;;;;;;;;;;4950688;28;19919;-65
2022/06/30 15:54:23;;;;;;;;;;;;;;;;;;4951366;28;19918;-65
2022/06/30 15:56:48;;;;;;;;;;;;;;;;;;4952340;28;19918;-65
2022/06/30 15:59:14;;;;;;;;;;;;;;;;;;4932373;28;19952;-65
2022/06/30 16:01:39;;;;;;;;;;;;;;;;;;4952715;28;19950;-64
2022/06/30 16:04:04;;;;;;;;;;;;;;;;;;4950238;28;20347;-65
2022/06/30 16:06:31;;;;;;;;;;;;;;;;;;4962939;28;20650;-65
2022/06/30 16:08:56;;;;;;;;;;;;;;;;;;4953651;28;19914;-64
2022/06/30 16:11:23;;;;;;;;;;;;;;;;;;4941191;28;19927;-65
2022/06/30 16:13:48;;;;;;;;;;;;;;;;;;4944551;28;19994;-63
2022/06/30 16:16:15;;;;;;;;;;;;;;;;;;4944493;28;20319;-64
2022/06/30 16:18:42;;;;;;;;;;;;;;;;;;4948932;28;20013;-64
2022/06/30 16:21:07;;;;;;;;;;;;;;;;;;4960621;28;19918;-64
2022/06/30 16:23:33;;;;;;;;;;;;;;;;;;4951656;28;20564;-63
2022/06/30 16:25:58;;;;;;;;;;;;;;;;;;4950150;28;19930;-63
2022/06/30 16:28:23;;;;;;;;;;;;;;;;;;4947527;28;19924;-63
2022/06/30 16:30:49;;;;;;;;;;;;;;;;;;4952711;28;20012;-64
2022/06/30 16:33:14;;;;;;;;;;;;;;;;;;4953282;28;20331;-63
2022/06/30 16:35:39;;;;;;;;;;;;;;;;;;4954502;28;20432;-62
2022/06/30 16:38:04;;;;;;;;;;;;;;;;;;4952030;28;19929;-64
2022/06/30 16:40:29;;;;;;;;;;;;;;;;;;4969016;28;20133;-64
2022/06/30 16:42:55;;;;;;;;;;;;;;;;;;4954256;28;20000;-64
2022/06/30 16:45:23;;;;;;;;;;;;;;;;;;4936782;28;19923;-64
2022/06/30 16:47:48;;;;;;;;;;;;;;;;;;4951174;28;19930;-64
2022/06/30 16:50:17;;;;;;;;;;;;;;;;;;4953103;28;19926;-64
2022/06/30 16:52:42;;;;;;;;;;;;;;;;;;4951633;28;20366;-64
2022/06/30 16:55:07;;;;;;;;;;;;;;;;;;4966192;28;19964;-63
2022/06/30 16:57:32;;;;;;;;;;;;;;;;;;4972687;28;19925;-64